createdAt,value
2023-03-17T08:54:58.877Z,8.5971
2023-03-17T08:55:58.746Z,9.5214
2023-03-17T09:17:31.395Z,8.4207
2023-03-17T09:18:32.147Z,8.6298
2023-03-17T09:19:32.993Z,9.1509
2023-03-17T09:20:34.020Z,9.7386
2023-03-17T09:22:51.159Z,7.8845
2023-03-17T09:50:47.211Z,0.0000
2023-03-17T09:51:47.166Z,0.0000
2023-03-17T09:54:11.460Z,0.0000
2023-03-17T11:44:07.882Z,1.9714
2023-03-17T11:45:53.098Z,2.1357
2023-03-17T11:46:55.594Z,2.2769
2023-03-17T11:47:59.894Z,2.4846
2023-03-17T11:49:01.101Z,2.0308
2023-03-17T11:50:03.382Z,2.0077
2023-03-17T11:51:05.945Z,2.4308
2023-03-17T11:52:08.495Z,1.9308
2023-03-17T11:53:11.078Z,1.9462
2023-03-17T11:54:13.674Z,2.5077
2023-03-17T11:55:16.243Z,1.9769
2023-03-17T11:56:18.851Z,1.7154
2023-03-17T11:59:17.969Z,3.0571
2023-03-17T12:00:20.537Z,3.8846
2023-03-17T17:59:32.387Z,7.0000
2023-03-17T18:02:42.577Z,6.5929
2023-03-17T18:03:45.125Z,6.6000
2023-03-17T18:04:47.729Z,5.6000
2023-03-17T18:05:50.288Z,5.0923
2023-03-17T18:07:39.142Z,10.5714
2023-03-17T18:08:41.807Z,7.5154
2023-03-17T18:09:44.308Z,6.3000
2023-03-17T18:10:46.902Z,6.0000
2023-03-17T18:11:49.492Z,6.0846
2023-03-17T18:12:52.112Z,5.8462
2023-03-17T18:13:54.646Z,5.4615
2023-03-17T18:14:57.234Z,8.4154
2023-03-17T18:15:59.804Z,11.0462
2023-03-17T18:17:02.448Z,7.9769
2023-03-17T18:18:05.003Z,5.8308
2023-03-17T18:19:07.561Z,6.9154
2023-03-17T18:20:10.223Z,8.0000
2023-03-17T18:21:12.726Z,9.8077
2023-03-17T18:22:15.324Z,13.3462
2023-03-17T18:23:17.914Z,14.0923
2023-03-17T18:24:20.482Z,15.1462
2023-03-17T18:25:23.148Z,17.8000
2023-03-17T18:26:25.807Z,17.0538
2023-03-17T18:28:59.429Z,16.8857
2023-03-17T18:30:02.015Z,17.7538
2023-03-17T18:31:04.643Z,19.2462
2023-03-17T18:32:07.459Z,16.3538
2023-03-17T18:33:09.864Z,19.3308
2023-03-17T18:34:12.344Z,17.0077
2023-03-17T18:35:14.921Z,18.6308
2023-03-17T18:41:26.656Z,21.3643
2023-03-17T18:42:29.231Z,20.3462
2023-03-17T18:43:31.807Z,16.9615
